Amelia Island, Florida
Current Conditions -  °F | °C
As of 8:35 AM on Saturday 25 Oct 2014 (Local Time) from KFHB Reporting Station
Clear Clear  
Wind Chill: 16°   Ceiling: Unl
Heat Index: 16°   Visibility: 10mi
Dew Point: 14°   Wind: 5mph
Humidity: 88%   Direction: 310°NW
Pressure: 29.99"   Gusts: NA
Location:  30.6056°N, 81.5268°W
Report Text: KFHB 251235Z AUTO 31004KT 10SM CLR 16/14 A2999 RMK AO1
Loading
Personal Weather Stations






























Interactive Weather Map New forecast layout! Learn more

10-Day Weather Forecast

Advertisements
Track Severe Weather on mobile